Terminal Aerodrome Forecast
Issued by NWS Charleston, WV

Current Version | Previous Version | Graphics & Text | Print | Product List | Glossary On
Versions: 1 2 3 4 5 6 7 8 9 10 11 12 13 14 15 16 17 18 19 20 21 22 23
000
FTUS41 KRLX 102300
TAFPKB
TAF
KPKB 102339Z 1100/1124 34004KT P6SM SKC
     FM110600 00000KT 6SM BR SKC
     FM110800 00000KT 4SM BR SCT001
      TEMPO 1108/1111 1/2SM FG BKN001
     FM111200 00000KT 5SM BR SKC
     FM111300 00000KT P6SM SKC
     FM111600 VRB03KT P6SM FEW050=

USA.gov is the U.S. government's official web portal to all federal, state and local government web resources and services.